createdAt,value
2022-10-22T00:00:18.680Z,10.74
2022-10-22T00:00:50.592Z,10.78
2022-10-22T00:01:22.967Z,10.81
2022-10-22T00:01:54.553Z,10.90
2022-10-22T00:02:27.841Z,10.92
2022-10-22T00:02:59.493Z,10.92
2022-10-22T00:03:31.071Z,10.94
2022-10-22T00:04:02.708Z,10.90
2022-10-22T00:04:35.635Z,10.88
2022-10-22T00:05:07.948Z,10.82
2022-10-22T00:05:39.567Z,10.84
2022-10-22T00:06:11.247Z,10.94
2022-10-22T00:06:44.983Z,10.92
2022-10-22T00:07:19.826Z,10.87
2022-10-22T00:07:51.407Z,10.81
2022-10-22T00:08:22.935Z,10.88
2022-10-22T00:08:54.508Z,10.90
2022-10-22T00:09:26.344Z,10.88
2022-10-22T00:09:57.937Z,10.92
2022-10-22T00:10:29.586Z,10.98
2022-10-22T00:11:08.611Z,10.91
2022-10-22T00:11:41.834Z,10.97
2022-10-22T00:12:15.161Z,10.97
2022-10-22T00:12:46.676Z,10.88
2022-10-22T00:13:19.091Z,10.84
2022-10-22T00:13:51.269Z,10.85
2022-10-22T00:14:22.859Z,10.84
2022-10-22T00:14:54.542Z,10.87
2022-10-22T00:15:26.256Z,10.88
2022-10-22T00:15:57.835Z,10.81
2022-10-22T00:16:29.406Z,10.81
2022-10-22T00:17:01.080Z,10.88
2022-10-22T00:17:32.598Z,10.88
2022-10-22T00:18:04.263Z,10.91
2022-10-22T00:18:36.568Z,10.94
2022-10-22T00:19:09.265Z,10.91
2022-10-22T00:19:41.132Z,10.95
2022-10-22T00:20:12.880Z,10.90
2022-10-22T00:20:44.454Z,10.92
2022-10-22T00:21:16.035Z,11.00
2022-10-22T00:21:47.594Z,11.01
2022-10-22T00:22:19.118Z,10.97
2022-10-22T00:23:27.085Z,11.07
2022-10-22T00:23:58.594Z,11.04
2022-10-22T00:24:30.107Z,10.95
2022-10-22T00:25:01.617Z,10.88
2022-10-22T00:25:35.816Z,10.87
2022-10-22T00:26:07.334Z,10.81
2022-10-22T00:26:40.371Z,10.68
2022-10-22T00:27:12.754Z,10.67
2022-10-22T00:27:44.266Z,10.78
2022-10-22T00:28:15.792Z,10.78
2022-10-22T00:28:47.302Z,10.78
2022-10-22T00:29:20.062Z,10.61
2022-10-22T00:29:51.565Z,10.72
2022-10-22T00:30:23.100Z,10.61
2022-10-22T00:30:59.058Z,10.64
2022-10-22T00:31:30.674Z,10.70
2022-10-22T00:32:02.602Z,10.57
2022-10-22T00:32:34.335Z,10.54
2022-10-22T00:33:05.946Z,10.54
2022-10-22T00:33:37.476Z,10.47
2022-10-22T00:34:09.021Z,10.43
2022-10-22T00:34:40.710Z,10.51
2022-10-22T00:35:12.250Z,10.44
2022-10-22T00:35:44.110Z,10.47
2022-10-22T00:36:16.822Z,10.50
2022-10-22T00:36:49.839Z,10.56
2022-10-22T00:37:21.485Z,10.50
2022-10-22T00:37:53.072Z,10.50
2022-10-22T00:38:24.970Z,10.56
2022-10-22T00:38:56.486Z,10.56
2022-10-22T00:39:28.746Z,10.60
2022-10-22T00:40:00.310Z,10.68
2022-10-22T00:40:31.875Z,10.67
2022-10-22T00:41:03.416Z,10.68
2022-10-22T00:41:34.948Z,10.64
2022-10-22T00:42:06.551Z,10.54
2022-10-22T00:42:38.424Z,10.46
2022-10-22T00:43:15.954Z,10.49
2022-10-22T00:43:58.288Z,10.36
2022-10-22T00:45:00.322Z,10.43
2022-10-22T00:45:31.937Z,10.53
2022-10-22T00:46:03.466Z,10.53
2022-10-22T00:46:34.986Z,10.46
2022-10-22T00:47:06.614Z,10.40
2022-10-22T00:48:01.412Z,10.43
2022-10-22T00:48:33.666Z,10.16
2022-10-22T00:49:05.211Z,10.14
2022-10-22T00:49:36.795Z,10.19
2022-10-22T00:50:13.858Z,10.22
2022-10-22T00:50:56.404Z,10.13
2022-10-22T00:51:33.627Z,10.24
2022-10-22T00:52:05.874Z,10.30
2022-10-22T00:52:37.841Z,10.33
2022-10-22T00:53:19.483Z,10.37
2022-10-22T00:53:55.972Z,10.32
2022-10-22T00:54:27.598Z,10.30
2022-10-22T00:55:00.780Z,10.34
2022-10-22T00:55:33.355Z,10.43
2022-10-22T00:56:06.134Z,10.49
2022-10-22T00:56:38.150Z,10.53
2022-10-22T00:57:09.951Z,10.57
2022-10-22T00:57:42.132Z,10.57
2022-10-22T00:58:14.104Z,10.59
2022-10-22T00:58:49.356Z,10.63
2022-10-22T00:59:20.939Z,10.67
2022-10-22T00:59:52.626Z,10.67
2022-10-22T01:00:24.896Z,10.68
2022-10-22T01:00:57.521Z,10.64
2022-10-22T01:01:31.922Z,10.63
2022-10-22T01:02:04.144Z,10.56
2022-10-22T01:02:35.826Z,10.56
2022-10-22T01:03:07.601Z,10.56
2022-10-22T01:03:39.139Z,10.51
2022-10-22T01:04:10.743Z,10.54
2022-10-22T01:04:42.728Z,10.54
2022-10-22T01:05:14.334Z,10.50
2022-10-22T01:06:00.638Z,10.47
2022-10-22T01:06:34.244Z,10.53
2022-10-22T01:07:06.074Z,10.51
2022-10-22T01:07:48.110Z,10.56
2022-10-22T01:08:39.654Z,10.54
2022-10-22T01:09:26.581Z,10.50
2022-10-22T01:10:26.062Z,10.53
2022-10-22T01:11:06.651Z,10.44
2022-10-22T01:11:51.710Z,10.47
2022-10-22T01:12:44.807Z,10.51
2022-10-22T01:13:33.146Z,10.29
2022-10-22T01:14:16.510Z,10.36
2022-10-22T01:15:12.955Z,10.36
2022-10-22T01:16:08.962Z,10.20
2022-10-22T01:17:30.951Z,10.19
2022-10-22T01:18:17.885Z,10.26
2022-10-22T01:19:03.066Z,10.05
2022-10-22T01:19:57.906Z,10.17
2022-10-22T01:20:46.111Z,10.14
2022-10-22T01:21:26.680Z,10.16
2022-10-22T01:22:14.169Z,10.17
2022-10-22T01:23:08.513Z,10.26
2022-10-22T01:24:09.326Z,10.26
2022-10-22T01:24:47.893Z,10.24
2022-10-22T01:25:35.071Z,10.28
2022-10-22T01:27:09.975Z,10.37
2022-10-22T01:28:10.699Z,10.37
2022-10-22T01:28:48.086Z,10.36
2022-10-22T01:29:45.007Z,10.33
2022-10-22T01:30:17.824Z,10.37
2022-10-22T01:30:53.778Z,10.34
2022-10-22T01:31:30.880Z,10.39
2022-10-22T01:32:10.354Z,10.43
2022-10-22T01:33:05.438Z,10.39
2022-10-22T01:33:38.672Z,10.36
2022-10-22T01:34:13.343Z,10.36
2022-10-22T01:34:52.167Z,10.29
2022-10-22T01:36:04.719Z,10.32
2022-10-22T01:36:37.783Z,10.30
2022-10-22T01:37:12.890Z,10.23
2022-10-22T01:37:54.123Z,10.32
2022-10-22T01:38:26.463Z,10.32
2022-10-22T01:39:00.672Z,10.28
2022-10-22T01:39:34.745Z,10.24
2022-10-22T01:40:08.908Z,10.10
2022-10-22T01:40:41.913Z,9.95
2022-10-22T01:41:13.950Z,9.88
2022-10-22T01:41:45.828Z,9.92
2022-10-22T01:42:17.874Z,9.86
2022-10-22T01:43:04.130Z,9.88
2022-10-22T01:43:35.638Z,9.88
2022-10-22T01:44:07.140Z,9.99
2022-10-22T01:44:39.052Z,10.03
2022-10-22T01:45:14.612Z,10.01
2022-10-22T01:45:56.500Z,9.96
2022-10-22T01:46:28.713Z,9.96
2022-10-22T01:47:36.587Z,9.95
2022-10-22T01:48:50.858Z,10.03
2022-10-22T01:49:52.117Z,10.13
2022-10-22T01:50:26.467Z,10.22
2022-10-22T01:51:25.493Z,10.19
2022-10-22T01:52:06.727Z,10.12
2022-10-22T01:53:24.684Z,10.22
2022-10-22T01:54:29.893Z,10.26
2022-10-22T01:55:21.178Z,10.20
2022-10-22T01:56:24.005Z,10.26
2022-10-22T01:57:22.295Z,10.17
2022-10-22T01:58:15.738Z,10.12
2022-10-22T01:59:05.487Z,10.10
2022-10-22T01:59:49.255Z,10.03
2022-10-22T02:01:33.582Z,9.93
2022-10-22T02:02:09.283Z,9.95
2022-10-22T02:02:40.789Z,9.95
2022-10-22T02:03:23.946Z,9.98
2022-10-22T02:04:06.225Z,10.01
2022-10-22T02:04:37.673Z,9.95
2022-10-22T02:05:15.056Z,9.89
2022-10-22T02:05:51.088Z,9.88
2022-10-22T02:06:25.152Z,9.93
2022-10-22T02:07:01.471Z,9.93
2022-10-22T02:07:39.745Z,9.96
2022-10-22T02:08:21.808Z,10.02
2022-10-22T02:08:54.732Z,10.01
2022-10-22T02:09:28.372Z,10.03
2022-10-22T02:10:01.280Z,10.05
2022-10-22T02:10:33.565Z,10.05
2022-10-22T02:11:06.219Z,10.12
2022-10-22T02:11:38.236Z,10.13
2022-10-22T02:12:11.185Z,10.14
2022-10-22T02:12:44.867Z,10.12
2022-10-22T02:13:23.189Z,10.17
2022-10-22T02:13:58.522Z,10.19
2022-10-22T02:14:31.472Z,10.23
2022-10-22T02:15:04.475Z,10.24
2022-10-22T02:15:38.395Z,10.20
2022-10-22T02:16:14.032Z,10.20
2022-10-22T02:16:47.664Z,10.23
2022-10-22T02:17:21.603Z,10.29
2022-10-22T02:17:56.910Z,10.28
2022-10-22T02:18:31.183Z,10.30
2022-10-22T02:19:10.511Z,10.22
2022-10-22T02:19:47.890Z,10.20
2022-10-22T02:20:31.335Z,10.26
2022-10-22T02:21:03.519Z,10.22
2022-10-22T02:21:35.469Z,10.16
2022-10-22T02:22:07.583Z,10.10
2022-10-22T02:22:40.217Z,10.13
2022-10-22T02:23:12.282Z,10.08
2022-10-22T02:23:44.688Z,10.02
2022-10-22T02:24:17.593Z,9.85
2022-10-22T02:24:49.912Z,9.85
2022-10-22T02:25:27.664Z,9.77
2022-10-22T02:26:06.157Z,9.57
2022-10-22T02:26:59.122Z,9.57
2022-10-22T02:27:36.067Z,9.67
2022-10-22T02:28:24.107Z,9.67
2022-10-22T02:29:14.503Z,9.68
2022-10-22T02:30:02.845Z,9.67
2022-10-22T02:30:38.597Z,9.64
2022-10-22T02:31:15.778Z,9.58
2022-10-22T02:31:50.176Z,9.57
2022-10-22T02:32:26.127Z,9.57
2022-10-22T02:32:57.614Z,9.47
2022-10-22T02:33:34.549Z,9.35
2022-10-22T02:34:11.137Z,9.50
2022-10-22T02:34:42.747Z,9.51
2022-10-22T02:35:19.340Z,9.38
2022-10-22T02:35:52.298Z,9.35
2022-10-22T02:36:24.814Z,9.17
2022-10-22T02:36:57.916Z,9.24
2022-10-22T02:37:29.819Z,9.24
2022-10-22T02:38:01.569Z,9.33
2022-10-22T02:38:34.759Z,9.40
2022-10-22T02:39:07.921Z,9.48
2022-10-22T02:39:40.258Z,9.48
2022-10-22T02:40:12.209Z,9.33
2022-10-22T02:40:43.874Z,9.38
2022-10-22T02:41:17.722Z,9.38
2022-10-22T02:41:49.435Z,9.47
2022-10-22T02:42:20.995Z,9.47
2022-10-22T02:42:53.220Z,9.45
2022-10-22T02:43:25.561Z,9.43
2022-10-22T02:43:57.135Z,9.50
2022-10-22T02:44:28.698Z,9.54
2022-10-22T02:45:00.212Z,9.57
2022-10-22T02:45:32.277Z,9.54
2022-10-22T02:46:03.956Z,9.54
2022-10-22T02:46:35.675Z,9.57
2022-10-22T02:47:07.278Z,9.58
2022-10-22T02:47:38.778Z,9.58
2022-10-22T02:48:10.400Z,9.58
2022-10-22T02:48:41.957Z,9.61
2022-10-22T02:49:13.538Z,9.52
2022-10-22T02:49:45.049Z,9.55
2022-10-22T02:50:17.137Z,9.52
2022-10-22T02:50:48.771Z,9.55
2022-10-22T02:51:20.370Z,9.58
2022-10-22T02:51:51.874Z,9.61
2022-10-22T02:52:23.382Z,9.65
2022-10-22T02:52:54.904Z,9.58
2022-10-22T02:53:26.476Z,9.51
2022-10-22T02:53:58.075Z,9.54
2022-10-22T02:54:29.650Z,9.55
2022-10-22T02:55:01.333Z,9.47
2022-10-22T02:55:32.869Z,9.55
2022-10-22T02:56:05.143Z,9.55
2022-10-22T02:56:36.678Z,9.55
2022-10-22T02:57:08.206Z,9.51
2022-10-22T02:57:40.297Z,9.55
2022-10-22T02:58:13.950Z,9.58
2022-10-22T02:58:45.494Z,9.64
2022-10-22T02:59:17.039Z,9.64
2022-10-22T02:59:48.572Z,9.64
2022-10-22T03:00:20.267Z,9.64
2022-10-22T03:00:52.068Z,9.62
2022-10-22T03:01:23.856Z,9.58
2022-10-22T03:01:55.400Z,9.57
2022-10-22T03:02:26.923Z,9.61
2022-10-22T03:02:58.428Z,9.52
2022-10-22T03:03:29.938Z,9.51
2022-10-22T03:04:01.453Z,9.43
2022-10-22T03:04:33.079Z,9.38
2022-10-22T03:05:05.454Z,9.41
2022-10-22T03:05:36.949Z,9.35
2022-10-22T03:06:08.920Z,9.35
2022-10-22T03:06:43.886Z,9.33
2022-10-22T03:07:15.705Z,9.40
2022-10-22T03:07:47.216Z,9.41
2022-10-22T03:08:18.842Z,9.43
2022-10-22T03:08:50.420Z,9.44
2022-10-22T03:09:24.149Z,9.40
2022-10-22T03:09:56.446Z,9.33
2022-10-22T03:10:27.970Z,9.35
2022-10-22T03:10:59.538Z,9.30
2022-10-22T03:11:31.054Z,9.24
2022-10-22T03:12:02.571Z,9.26
2022-10-22T03:12:34.190Z,9.30
2022-10-22T03:13:05.723Z,9.26
2022-10-22T03:13:37.290Z,9.26
2022-10-22T03:14:08.810Z,9.24
2022-10-22T03:14:40.415Z,9.28
2022-10-22T03:15:11.936Z,9.28
2022-10-22T03:15:43.494Z,9.26
2022-10-22T03:16:15.086Z,9.24
2022-10-22T03:16:46.723Z,9.26
2022-10-22T03:17:18.227Z,9.23
2022-10-22T03:17:49.763Z,9.19
2022-10-22T03:18:21.294Z,9.14
2022-10-22T03:18:52.843Z,9.17
2022-10-22T03:19:24.372Z,9.13
2022-10-22T03:19:55.928Z,9.16
2022-10-22T03:20:27.750Z,9.07
2022-10-22T03:21:20.944Z,9.06
2022-10-22T03:21:58.788Z,8.93
2022-10-22T03:22:32.695Z,8.89
2022-10-22T03:23:04.441Z,8.83
2022-10-22T03:23:37.350Z,8.80
2022-10-22T03:24:15.018Z,8.79
2022-10-22T03:24:50.298Z,8.72
2022-10-22T03:25:25.278Z,8.79
2022-10-22T03:25:56.823Z,8.76
2022-10-22T03:26:28.904Z,8.76
2022-10-22T03:27:00.484Z,8.73
2022-10-22T03:27:32.006Z,8.69
2022-10-22T03:28:06.620Z,8.75
2022-10-22T03:28:39.640Z,8.59
2022-10-22T03:29:12.962Z,8.61
2022-10-22T03:29:44.718Z,8.65
2022-10-22T03:30:16.282Z,8.71
2022-10-22T03:30:47.790Z,8.68
2022-10-22T03:31:19.291Z,8.69
2022-10-22T03:31:50.919Z,8.69
2022-10-22T03:32:22.530Z,8.72
2022-10-22T03:32:54.022Z,8.69
2022-10-22T03:33:25.538Z,8.73
2022-10-22T03:33:57.038Z,8.82
2022-10-22T03:34:28.829Z,8.89
2022-10-22T03:35:42.682Z,8.95
2022-10-22T03:36:14.235Z,8.95
2022-10-22T03:36:46.369Z,8.97
2022-10-22T03:37:18.213Z,8.93
2022-10-22T03:37:50.268Z,8.89
2022-10-22T03:38:21.882Z,8.93
2022-10-22T03:38:53.962Z,8.86
2022-10-22T03:39:27.099Z,8.83
2022-10-22T03:39:58.914Z,8.87
2022-10-22T03:40:30.446Z,8.92
2022-10-22T03:41:02.239Z,8.96
2022-10-22T03:41:34.745Z,8.97
2022-10-22T03:42:07.456Z,9.00
2022-10-22T03:42:40.212Z,8.96
2022-10-22T03:43:12.020Z,9.00
2022-10-22T03:43:45.156Z,9.03
2022-10-22T03:44:17.998Z,9.03
2022-10-22T03:44:49.840Z,8.93
2022-10-22T03:45:21.344Z,9.02
2022-10-22T03:45:52.840Z,8.95
2022-10-22T03:46:24.418Z,8.97
2022-10-22T03:46:58.732Z,8.95
2022-10-22T03:47:33.269Z,8.93
2022-10-22T03:48:05.194Z,8.96
2022-10-22T03:48:36.694Z,8.92
2022-10-22T03:49:08.204Z,8.99
2022-10-22T03:49:39.768Z,8.87
2022-10-22T03:50:11.332Z,8.92
2022-10-22T03:50:42.859Z,8.93
2022-10-22T03:51:14.372Z,9.00
2022-10-22T03:51:45.889Z,8.92
2022-10-22T03:52:18.162Z,8.87
2022-10-22T03:52:49.670Z,8.89
2022-10-22T03:53:21.244Z,8.86
2022-10-22T03:53:52.756Z,8.85
2022-10-22T03:54:24.276Z,8.85
2022-10-22T03:54:55.851Z,8.92
2022-10-22T03:55:27.558Z,8.87
2022-10-22T03:55:59.080Z,8.68
2022-10-22T03:56:31.013Z,8.66
2022-10-22T03:57:03.451Z,8.75
2022-10-22T03:57:35.057Z,8.75
2022-10-22T03:58:06.598Z,8.75
2022-10-22T03:58:40.291Z,8.69
2022-10-22T03:59:13.160Z,8.69
2022-10-22T03:59:46.458Z,8.72
2022-10-22T04:00:18.234Z,8.76
2022-10-22T04:00:49.849Z,8.80
2022-10-22T04:01:21.462Z,8.83
2022-10-22T04:01:53.095Z,8.86
2022-10-22T04:02:24.607Z,8.79
2022-10-22T04:02:56.303Z,8.82
2022-10-22T04:03:27.792Z,8.90
2022-10-22T04:03:59.710Z,8.80
2022-10-22T04:04:31.340Z,8.87
2022-10-22T04:05:02.986Z,8.92
2022-10-22T04:05:34.570Z,8.96
2022-10-22T04:06:12.294Z,8.95
2022-10-22T04:06:43.808Z,8.95
2022-10-22T04:07:15.316Z,9.02
2022-10-22T04:07:46.830Z,9.02
2022-10-22T04:08:18.372Z,8.93
2022-10-22T04:08:49.982Z,8.95
2022-10-22T04:09:21.642Z,8.99
2022-10-22T04:09:53.204Z,8.95
2022-10-22T04:10:24.898Z,8.95
2022-10-22T04:10:56.434Z,8.95
2022-10-22T04:11:28.026Z,8.93
2022-10-22T04:12:00.114Z,8.97
2022-10-22T04:12:31.617Z,8.76
2022-10-22T04:13:03.132Z,8.76
2022-10-22T04:13:34.688Z,8.75
2022-10-22T04:14:06.235Z,8.77
2022-10-22T04:14:37.734Z,8.79
2022-10-22T04:15:09.855Z,8.69
2022-10-22T04:15:41.385Z,8.66
2022-10-22T04:16:15.482Z,8.65
2022-10-22T04:16:46.984Z,8.52
2022-10-22T04:17:18.899Z,8.58
2022-10-22T04:17:50.405Z,8.54
2022-10-22T04:18:23.567Z,8.58
2022-10-22T04:18:55.663Z,8.59
2022-10-22T04:19:27.167Z,8.56
2022-10-22T04:19:58.719Z,8.59
2022-10-22T04:20:30.217Z,8.64
2022-10-22T04:21:01.866Z,8.56
2022-10-22T04:21:34.294Z,8.62
2022-10-22T04:22:05.789Z,8.51
2022-10-22T04:22:37.348Z,8.56
2022-10-22T04:23:08.916Z,8.61
2022-10-22T04:23:48.172Z,8.52
2022-10-22T04:24:19.706Z,8.49
2022-10-22T04:25:27.619Z,8.55
2022-10-22T04:26:00.757Z,8.64
2022-10-22T04:26:32.403Z,8.59
2022-10-22T04:27:04.052Z,8.65
2022-10-22T04:27:35.657Z,8.59
2022-10-22T04:28:08.292Z,8.59
2022-10-22T04:28:39.840Z,8.58
2022-10-22T04:29:13.613Z,8.61
2022-10-22T04:29:47.666Z,8.66
2022-10-22T04:30:19.235Z,8.62
2022-10-22T04:30:50.728Z,8.59
2022-10-22T04:31:24.655Z,8.56
2022-10-22T04:31:56.157Z,8.37
2022-10-22T04:32:28.295Z,8.35
2022-10-22T04:32:59.833Z,8.30
2022-10-22T04:33:31.373Z,8.27
2022-10-22T04:34:02.879Z,8.40
2022-10-22T04:34:34.435Z,8.49
2022-10-22T04:35:06.316Z,8.46
2022-10-22T04:35:39.910Z,8.37
2022-10-22T04:36:17.623Z,8.44
2022-10-22T04:36:49.130Z,8.41
2022-10-22T04:37:21.008Z,8.27
2022-10-22T04:37:52.515Z,8.18
2022-10-22T04:38:24.247Z,8.14
2022-10-22T04:38:58.445Z,8.07
2022-10-22T04:39:30.453Z,8.11
2022-10-22T04:40:02.001Z,8.10
2022-10-22T04:40:33.523Z,8.13
2022-10-22T04:41:12.038Z,8.17
2022-10-22T04:41:43.653Z,8.18
2022-10-22T04:42:15.181Z,8.27
2022-10-22T04:42:46.732Z,8.27
2022-10-22T04:43:18.226Z,8.27
2022-10-22T04:43:50.092Z,8.25
2022-10-22T04:44:21.985Z,8.24
2022-10-22T04:44:53.676Z,8.31
2022-10-22T04:45:25.225Z,8.25
2022-10-22T04:46:00.435Z,8.34
2022-10-22T04:46:34.447Z,8.33
2022-10-22T04:47:06.004Z,8.28
2022-10-22T04:47:37.769Z,8.33
2022-10-22T04:48:09.369Z,8.40
2022-10-22T04:48:42.188Z,8.35
2022-10-22T04:49:13.800Z,8.33
2022-10-22T04:49:45.293Z,8.18
2022-10-22T04:50:16.862Z,8.24
2022-10-22T04:50:48.365Z,8.27
2022-10-22T04:51:22.071Z,8.41
2022-10-22T04:51:53.969Z,8.41
2022-10-22T04:52:25.469Z,8.42
2022-10-22T04:52:56.962Z,8.46
2022-10-22T04:53:28.559Z,8.45
2022-10-22T04:54:00.152Z,8.33
2022-10-22T04:54:33.129Z,8.28
2022-10-22T04:55:05.301Z,8.24
2022-10-22T04:55:36.810Z,8.25
2022-10-22T04:56:09.236Z,8.24
2022-10-22T04:56:40.825Z,8.20
2022-10-22T04:57:12.645Z,8.20
2022-10-22T04:57:44.266Z,8.08
2022-10-22T04:58:15.774Z,8.11
2022-10-22T04:58:54.309Z,8.08
2022-10-22T04:59:25.936Z,7.96
2022-10-22T04:59:57.457Z,7.94
2022-10-22T05:00:28.969Z,7.86
2022-10-22T05:01:00.547Z,7.93
2022-10-22T05:01:41.748Z,7.93
2022-10-22T05:02:14.884Z,8.06
2022-10-22T05:02:50.009Z,8.16
2022-10-22T05:03:21.500Z,8.06
2022-10-22T05:03:54.967Z,8.01
2022-10-22T05:04:26.474Z,8.07
2022-10-22T05:04:58.008Z,8.13
2022-10-22T05:05:29.498Z,8.17
2022-10-22T05:06:01.889Z,8.16
2022-10-22T05:06:35.059Z,8.18
2022-10-22T05:07:06.572Z,8.10
2022-10-22T05:07:38.274Z,8.11
2022-10-22T05:08:10.034Z,8.17
2022-10-22T05:08:43.514Z,8.23
2022-10-22T05:09:18.190Z,8.24
2022-10-22T05:09:50.173Z,8.23
2022-10-22T05:10:21.702Z,8.31
2022-10-22T05:10:53.202Z,8.38
2022-10-22T05:11:34.014Z,8.35
2022-10-22T05:12:06.484Z,8.35
2022-10-22T05:12:38.065Z,8.35
2022-10-22T05:13:09.591Z,8.37
2022-10-22T05:13:41.181Z,8.30
2022-10-22T05:14:13.119Z,8.33
2022-10-22T05:14:44.953Z,8.27
2022-10-22T05:15:16.621Z,8.23
2022-10-22T05:15:48.127Z,8.17
2022-10-22T05:16:19.675Z,7.97
2022-10-22T05:16:52.240Z,7.97
2022-10-22T05:17:23.740Z,8.03
2022-10-22T05:17:55.277Z,7.96
2022-10-22T05:18:26.799Z,8.01
2022-10-22T05:19:00.027Z,7.87
2022-10-22T05:19:31.907Z,7.91
2022-10-22T05:20:05.231Z,7.96
2022-10-22T05:20:40.468Z,7.86
2022-10-22T05:21:15.330Z,7.82
2022-10-22T05:21:47.026Z,7.86
2022-10-22T05:22:18.591Z,7.75
2022-10-22T05:22:50.090Z,7.67
2022-10-22T05:23:21.596Z,7.61
2022-10-22T05:23:55.794Z,7.70
2022-10-22T05:24:28.587Z,7.80
2022-10-22T05:25:00.090Z,7.75
2022-10-22T05:25:31.626Z,7.77
2022-10-22T05:26:08.062Z,7.79
2022-10-22T05:26:39.606Z,7.80
2022-10-22T05:27:11.151Z,7.85
2022-10-22T05:27:42.857Z,7.76
2022-10-22T05:28:14.622Z,7.85
2022-10-22T05:28:47.609Z,7.70
2022-10-22T05:29:19.972Z,7.79
2022-10-22T05:29:51.729Z,7.83
2022-10-22T05:30:23.257Z,7.85
2022-10-22T05:30:56.640Z,7.63
2022-10-22T05:31:28.961Z,7.75
2022-10-22T05:32:00.605Z,7.80
2022-10-22T05:32:32.131Z,7.83
2022-10-22T05:33:03.762Z,7.69
2022-10-22T05:33:35.327Z,7.73
2022-10-22T05:34:06.895Z,7.77
2022-10-22T05:34:38.413Z,7.77
2022-10-22T05:35:09.941Z,7.59
2022-10-22T05:35:45.574Z,7.72
2022-10-22T05:36:20.996Z,7.67
2022-10-22T05:36:52.535Z,7.69
2022-10-22T05:37:24.079Z,7.65
2022-10-22T05:38:28.163Z,7.79
2022-10-22T05:38:59.686Z,7.89
2022-10-22T05:39:31.202Z,7.87
2022-10-22T05:40:18.931Z,7.90
2022-10-22T05:41:10.767Z,7.96
2022-10-22T05:41:42.334Z,8.00
2022-10-22T05:42:13.867Z,8.06
2022-10-22T05:42:45.372Z,8.08
2022-10-22T05:43:16.922Z,8.08
2022-10-22T05:43:48.845Z,8.14
2022-10-22T05:44:20.413Z,8.10
2022-10-22T05:44:53.082Z,8.01
2022-10-22T05:45:24.617Z,7.98
2022-10-22T05:45:56.393Z,7.94
2022-10-22T05:46:30.712Z,7.91
2022-10-22T05:47:02.275Z,7.72
2022-10-22T05:47:33.857Z,7.85
2022-10-22T05:48:06.610Z,7.82
2022-10-22T05:48:38.497Z,7.80
2022-10-22T05:49:13.553Z,7.75
2022-10-22T05:49:45.071Z,7.85
2022-10-22T05:50:16.601Z,7.80
2022-10-22T05:50:50.775Z,7.82
2022-10-22T05:51:23.009Z,7.85
2022-10-22T05:51:54.532Z,7.89
2022-10-22T05:52:26.556Z,7.86
2022-10-22T05:52:58.062Z,7.96
2022-10-22T05:53:29.567Z,7.98
2022-10-22T05:54:03.343Z,8.04
2022-10-22T05:54:34.995Z,8.11
2022-10-22T05:55:06.884Z,8.07
2022-10-22T05:55:40.578Z,8.11
2022-10-22T05:56:15.244Z,8.14
2022-10-22T05:56:46.807Z,8.23
2022-10-22T05:57:18.339Z,8.27
2022-10-22T05:57:50.225Z,8.17
2022-10-22T05:58:21.717Z,8.20
2022-10-22T05:58:53.289Z,8.24
2022-10-22T05:59:24.901Z,8.33
2022-10-22T05:59:56.397Z,8.33
2022-10-22T06:00:27.903Z,8.25
2022-10-22T06:01:08.114Z,8.31
2022-10-22T06:01:40.625Z,8.21
2022-10-22T06:02:12.573Z,8.17
2022-10-22T06:02:44.415Z,8.24
2022-10-22T06:03:15.914Z,8.21
2022-10-22T06:03:48.641Z,8.13
2022-10-22T06:04:20.152Z,8.18
2022-10-22T06:04:51.652Z,8.08
2022-10-22T06:05:23.179Z,8.17
2022-10-22T06:05:54.717Z,8.18
2022-10-22T06:06:31.534Z,8.18
2022-10-22T06:07:03.259Z,8.27
2022-10-22T06:07:35.983Z,8.27
2022-10-22T06:08:15.614Z,8.30
2022-10-22T06:08:52.815Z,8.28
2022-10-22T06:09:27.776Z,8.27
2022-10-22T06:09:59.819Z,8.25
2022-10-22T06:10:31.874Z,8.27
2022-10-22T06:11:03.471Z,8.34
2022-10-22T06:11:35.423Z,8.21
2022-10-22T06:12:10.811Z,8.23
2022-10-22T06:12:42.556Z,8.37
2022-10-22T06:13:14.408Z,8.44
2022-10-22T06:13:46.820Z,8.45
2022-10-22T06:14:19.641Z,8.37
2022-10-22T06:14:51.259Z,8.45
2022-10-22T06:15:22.835Z,8.52
2022-10-22T06:15:54.432Z,8.55
2022-10-22T06:16:29.697Z,8.56
2022-10-22T06:17:01.281Z,8.68
2022-10-22T06:17:32.836Z,8.72
2022-10-22T06:18:04.384Z,8.75
2022-10-22T06:18:36.056Z,8.79
2022-10-22T06:19:08.286Z,8.71
2022-10-22T06:19:39.801Z,8.80
2022-10-22T06:20:12.352Z,8.82
2022-10-22T06:20:45.445Z,8.85
2022-10-22T06:21:17.131Z,8.79
2022-10-22T06:21:49.093Z,8.80
2022-10-22T06:22:20.601Z,8.89
2022-10-22T06:22:52.107Z,8.85
2022-10-22T06:23:23.631Z,8.83
2022-10-22T06:23:59.519Z,8.90
2022-10-22T06:24:31.209Z,8.79
2022-10-22T06:25:02.760Z,8.79
2022-10-22T06:25:34.275Z,8.82
2022-10-22T06:26:07.337Z,8.80
2022-10-22T06:26:39.210Z,8.87
2022-10-22T06:27:10.732Z,8.95
2022-10-22T06:27:42.283Z,8.99
2022-10-22T06:28:13.797Z,8.93
2022-10-22T06:28:45.355Z,9.00
2022-10-22T06:29:17.186Z,9.07
2022-10-22T06:29:48.939Z,9.02
2022-10-22T06:30:20.508Z,9.09
2022-10-22T06:30:52.066Z,9.13
2022-10-22T06:31:25.410Z,9.30
2022-10-22T06:31:56.916Z,9.41
2022-10-22T06:32:28.423Z,9.44
2022-10-22T06:32:59.950Z,9.54
2022-10-22T06:33:34.074Z,9.59
2022-10-22T06:34:08.386Z,9.71
2022-10-22T06:34:39.975Z,9.74
2022-10-22T06:35:11.554Z,9.85
2022-10-22T06:35:43.090Z,9.81
2022-10-22T06:36:17.651Z,9.79
2022-10-22T06:36:49.303Z,9.71
2022-10-22T06:37:20.824Z,9.71
2022-10-22T06:37:52.333Z,9.72
2022-10-22T06:38:23.931Z,9.88
2022-10-22T06:38:55.899Z,9.84
2022-10-22T06:39:27.523Z,10.01
2022-10-22T06:39:59.101Z,10.10
2022-10-22T06:40:30.643Z,10.19
2022-10-22T06:41:04.440Z,10.24
2022-10-22T06:41:36.162Z,10.22
2022-10-22T06:42:07.721Z,10.26
2022-10-22T06:42:39.520Z,10.20
2022-10-22T06:43:13.068Z,10.26
2022-10-22T06:43:46.866Z,10.26
2022-10-22T06:44:19.753Z,10.29
2022-10-22T06:44:51.324Z,10.34
2022-10-22T06:45:22.894Z,10.44
2022-10-22T06:45:59.848Z,10.43
2022-10-22T06:46:32.201Z,10.56
2022-10-22T06:47:03.758Z,10.67
2022-10-22T06:47:35.346Z,10.72
2022-10-22T06:48:07.228Z,10.68
2022-10-22T06:48:40.114Z,10.82
2022-10-22T06:49:15.337Z,10.88
2022-10-22T06:49:48.588Z,10.95
2022-10-22T06:50:20.096Z,11.19
2022-10-22T06:50:51.635Z,11.19
2022-10-22T06:51:23.659Z,11.25
2022-10-22T06:51:55.344Z,11.28
2022-10-22T06:52:26.889Z,11.44
2022-10-22T06:52:58.433Z,11.62
2022-10-22T06:53:30.645Z,11.73
2022-10-22T06:54:02.147Z,11.90
2022-10-22T06:54:33.768Z,11.94
2022-10-22T06:55:05.688Z,11.95
2022-10-22T06:55:37.217Z,11.97
2022-10-22T06:56:11.772Z,12.00
2022-10-22T06:56:43.377Z,11.80
2022-10-22T06:57:14.892Z,11.87
2022-10-22T06:57:46.401Z,11.67
2022-10-22T06:58:18.450Z,11.70
2022-10-22T06:58:51.390Z,11.65
2022-10-22T06:59:22.887Z,11.71
2022-10-22T06:59:54.384Z,11.56
2022-10-22T07:00:26.005Z,11.46
2022-10-22T07:01:05.301Z,11.46
2022-10-22T07:01:38.068Z,11.52
2022-10-22T07:02:10.387Z,11.63
2022-10-22T07:02:42.196Z,11.67
2022-10-22T07:03:14.780Z,11.74
2022-10-22T07:03:46.733Z,11.81
2022-10-22T07:04:18.248Z,11.81
2022-10-22T07:04:49.748Z,11.87
2022-10-22T07:05:21.303Z,11.70
2022-10-22T07:05:52.840Z,11.80
2022-10-22T07:06:25.679Z,11.73
2022-10-22T07:06:57.224Z,11.87
2022-10-22T07:07:28.769Z,11.76
2022-10-22T07:08:00.310Z,11.70
2022-10-22T07:08:32.160Z,11.70
2022-10-22T07:09:04.120Z,11.67
2022-10-22T07:09:35.815Z,11.60
2022-10-22T07:10:08.066Z,11.69
2022-10-22T07:10:39.615Z,11.74
2022-10-22T07:11:20.878Z,11.81
2022-10-22T07:11:52.379Z,11.69
2022-10-22T07:12:23.886Z,11.76
2022-10-22T07:12:55.405Z,11.83
2022-10-22T07:13:26.928Z,11.90
2022-10-22T07:13:59.931Z,11.86
2022-10-22T07:14:31.453Z,11.86
2022-10-22T07:15:03.187Z,11.76
2022-10-22T07:15:34.745Z,11.81
2022-10-22T07:16:07.796Z,11.91
2022-10-22T07:16:42.121Z,11.74
2022-10-22T07:17:13.631Z,11.55
2022-10-22T07:17:45.279Z,11.46
2022-10-22T07:18:16.796Z,11.47
2022-10-22T07:18:48.997Z,11.52
2022-10-22T07:19:20.511Z,11.62
2022-10-22T07:19:52.099Z,11.66
2022-10-22T07:20:23.710Z,11.79
2022-10-22T07:20:55.401Z,11.77
2022-10-22T07:21:27.137Z,11.93
2022-10-22T07:21:58.757Z,11.90
2022-10-22T07:22:30.323Z,12.11
2022-10-22T07:23:01.829Z,12.21
2022-10-22T07:23:33.457Z,12.22
2022-10-22T07:24:05.225Z,12.42
2022-10-22T07:24:36.749Z,12.59
2022-10-22T07:25:08.664Z,12.85
2022-10-22T07:25:41.419Z,12.99
2022-10-22T07:26:17.339Z,13.27
2022-10-22T07:26:48.947Z,13.47
2022-10-22T07:27:20.535Z,13.90
2022-10-22T07:27:52.417Z,14.20
2022-10-22T07:28:24.267Z,14.75
2022-10-22T07:28:55.781Z,15.28
2022-10-22T07:29:28.366Z,15.60
2022-10-22T07:30:01.099Z,15.32
2022-10-22T07:30:32.614Z,15.22